createdAt,value
2022-09-23T00:01:32.748Z,1
2022-09-23T00:03:29.543Z,1
2022-09-23T00:05:30.076Z,1
2022-09-23T00:07:30.127Z,1
2022-09-23T00:09:30.228Z,1
2022-09-23T00:11:32.717Z,1
2022-09-23T00:13:30.139Z,1
2022-09-23T00:15:30.107Z,1
2022-09-23T00:17:29.799Z,1
2022-09-23T00:19:33.397Z,1
2022-09-23T00:21:29.603Z,1
2022-09-23T00:23:36.900Z,1
2022-09-23T00:25:29.604Z,1
2022-09-23T00:27:29.513Z,1
2022-09-23T00:29:30.446Z,1
2022-09-23T00:31:36.697Z,1
2022-09-23T00:33:36.807Z,1
2022-09-23T00:35:36.669Z,1
2022-09-23T00:37:29.534Z,1
2022-09-23T00:39:30.471Z,1
2022-09-23T00:41:36.406Z,1
2022-09-23T00:43:30.236Z,1
2022-09-23T00:45:32.524Z,1
2022-09-23T00:47:33.192Z,1
2022-09-23T00:49:30.077Z,1
2022-09-23T00:51:29.538Z,1
2022-09-23T00:53:33.786Z,1
2022-09-23T00:55:30.263Z,1
2022-09-23T00:57:29.570Z,1
2022-09-23T00:59:30.379Z,1
2022-09-23T01:01:36.803Z,1
2022-09-23T01:03:29.538Z,1
2022-09-23T01:05:38.606Z,1
2022-09-23T01:07:30.316Z,1
2022-09-23T01:09:35.721Z,1
2022-09-23T01:11:29.500Z,1
2022-09-23T01:13:31.762Z,1
2022-09-23T01:15:30.025Z,1
2022-09-23T01:19:32.751Z,1
2022-09-23T01:21:36.430Z,1
2022-09-23T01:23:30.053Z,1
2022-09-23T01:25:30.200Z,1
2022-09-23T01:27:31.720Z,1
2022-09-23T01:29:30.123Z,1
2022-09-23T01:31:29.499Z,1
2022-09-23T01:33:29.482Z,1
2022-09-23T01:37:29.979Z,1
2022-09-23T01:39:29.742Z,1
2022-09-23T01:41:33.392Z,1
2022-09-23T01:43:30.320Z,1
2022-09-23T01:45:29.486Z,1
2022-09-23T01:47:33.634Z,1
2022-09-23T01:49:30.504Z,1
2022-09-23T01:51:32.079Z,1
2022-09-23T01:53:29.961Z,1
2022-09-23T01:55:32.501Z,1
2022-09-23T01:57:33.285Z,1
2022-09-23T01:59:29.551Z,1
2022-09-23T02:01:30.277Z,1
2022-09-23T02:03:30.300Z,1
2022-09-23T02:05:29.514Z,1
2022-09-23T02:07:33.618Z,1
2022-09-23T02:09:29.420Z,1
2022-09-23T02:11:29.508Z,1
2022-09-23T02:13:38.885Z,1
2022-09-23T02:15:30.388Z,1
2022-09-23T02:17:29.416Z,1
2022-09-23T02:19:29.443Z,1
2022-09-23T02:21:32.972Z,1
2022-09-23T02:23:33.737Z,1
2022-09-23T02:25:29.627Z,1
2022-09-23T02:27:30.183Z,1
2022-09-23T02:29:36.239Z,1
2022-09-23T02:31:32.879Z,1
2022-09-23T02:33:29.868Z,1
2022-09-23T02:35:33.619Z,1
2022-09-23T02:37:29.721Z,1
2022-09-23T02:39:29.525Z,1
2022-09-23T02:41:29.522Z,1
2022-09-23T02:43:29.552Z,1
2022-09-23T02:45:29.476Z,1
2022-09-23T02:47:32.861Z,1
2022-09-23T02:49:30.475Z,1
2022-09-23T02:51:29.912Z,1
2022-09-23T02:53:30.317Z,1
2022-09-23T02:55:30.450Z,1
2022-09-23T02:57:33.578Z,1
2022-09-23T02:59:30.309Z,1
2022-09-23T03:01:32.777Z,1
2022-09-23T03:03:30.238Z,1
2022-09-23T03:05:32.792Z,1
2022-09-23T03:07:29.595Z,1
2022-09-23T03:11:30.048Z,1
2022-09-23T03:13:33.082Z,1
2022-09-23T03:15:29.524Z,1
2022-09-23T03:17:30.495Z,1
2022-09-23T03:19:29.955Z,1
2022-09-23T03:21:29.938Z,1
2022-09-23T03:23:30.416Z,1
2022-09-23T03:25:34.913Z,1
2022-09-23T03:29:30.201Z,1
2022-09-23T03:31:29.918Z,1
2022-09-23T03:33:36.832Z,1
2022-09-23T03:35:29.947Z,1
2022-09-23T03:37:29.481Z,1
2022-09-23T03:39:29.586Z,1
2022-09-23T03:41:33.651Z,1
2022-09-23T03:43:38.056Z,1
2022-09-23T03:45:33.030Z,1
2022-09-23T03:47:33.714Z,1
2022-09-23T03:49:29.971Z,1
2022-09-23T03:51:33.675Z,1
2022-09-23T03:53:33.569Z,1
2022-09-23T03:55:36.722Z,1
2022-09-23T03:57:30.160Z,1
2022-09-23T03:59:29.976Z,1
2022-09-23T04:01:29.816Z,1
2022-09-23T04:03:29.565Z,1
2022-09-23T04:05:30.367Z,1
2022-09-23T04:07:36.855Z,1
2022-09-23T04:09:30.532Z,1
2022-09-23T04:11:29.554Z,1
2022-09-23T04:13:33.621Z,0
2022-09-23T04:15:33.588Z,0
2022-09-23T04:17:29.598Z,0
2022-09-23T04:19:30.507Z,0
2022-09-23T04:21:35.079Z,0.1
2022-09-23T04:23:29.827Z,0.2
2022-09-23T04:25:41.646Z,0.2
2022-09-23T04:27:33.155Z,0.3
2022-09-23T04:29:29.513Z,0.4
2022-09-23T04:31:29.636Z,0.6
2022-09-23T04:33:29.416Z,1
2022-09-23T04:35:29.541Z,1.4
2022-09-23T04:37:30.414Z,2.1
2022-09-23T04:39:30.173Z,3.3
2022-09-23T04:41:29.857Z,5
2022-09-23T04:43:29.661Z,7.4
2022-09-23T04:45:33.041Z,11
2022-09-23T04:47:36.298Z,16.4
2022-09-23T04:49:30.312Z,22.2
2022-09-23T04:51:30.107Z,31.5
2022-09-23T04:53:29.620Z,44.7
2022-09-23T04:57:29.598Z,77.5
2022-09-23T05:01:29.595Z,121.5
2022-09-23T05:05:29.601Z,181.3
2022-09-23T05:07:30.544Z,221.4
2022-09-23T05:09:39.345Z,270.4
2022-09-23T05:11:31.597Z,298.9
2022-09-23T05:13:29.766Z,347.2
2022-09-23T05:15:32.037Z,403.4
2022-09-23T05:17:35.823Z,445.9
2022-09-23T05:19:29.611Z,492.7
2022-09-23T05:21:30.078Z,544.6
2022-09-23T05:23:34.413Z,601.8
2022-09-23T05:25:29.584Z,665.1
2022-09-23T05:27:32.145Z,699.2
2022-09-23T05:29:32.861Z,735.1
2022-09-23T05:31:30.335Z,812.4
2022-09-23T05:33:39.324Z,854.1
2022-09-23T05:35:29.485Z,897.8
2022-09-23T05:37:30.314Z,943.9
2022-09-23T05:39:37.482Z,1043.1
2022-09-23T05:41:33.189Z,1096.6
2022-09-23T05:43:29.652Z,1152.9
2022-09-23T05:45:29.951Z,1212
2022-09-23T05:47:29.655Z,1274.1
2022-09-23T05:49:55.571Z,1339.4
2022-09-23T05:51:31.059Z,1408.1
2022-09-23T05:53:29.763Z,1408.1
2022-09-23T05:55:30.089Z,1480.3
2022-09-23T05:57:33.980Z,1556.2
2022-09-23T05:59:30.351Z,1636
2022-09-23T06:01:31.822Z,1636
2022-09-23T06:03:29.589Z,1719.9
2022-09-23T06:05:35.762Z,1808
2022-09-23T06:07:33.621Z,1808
2022-09-23T06:09:34.204Z,1900.7
2022-09-23T06:11:30.490Z,1900.7
2022-09-23T06:13:36.730Z,1998.2
2022-09-23T06:15:33.760Z,1998.2
2022-09-23T06:17:29.735Z,1998.2
2022-09-23T06:19:29.603Z,2100.6
2022-09-23T06:21:30.300Z,2100.6
2022-09-23T06:23:38.875Z,2208.3
2022-09-23T06:25:32.760Z,2208.3
2022-09-23T06:27:30.315Z,2321.6
2022-09-23T06:29:30.310Z,2321.6
2022-09-23T06:31:32.704Z,2440.6
2022-09-23T06:33:36.409Z,2440.6
2022-09-23T06:35:29.568Z,2565.7
2022-09-23T06:37:33.506Z,2565.7
2022-09-23T06:39:33.591Z,2697.3
2022-09-23T06:41:30.177Z,2697.3
2022-09-23T06:45:33.347Z,8518.5
2022-09-23T06:49:31.030Z,13359.7
2022-09-23T06:51:32.913Z,14764.8
2022-09-23T06:53:33.182Z,15521.8
2022-09-23T06:55:33.640Z,15521.8
2022-09-23T06:57:36.703Z,16317.6
2022-09-23T06:59:30.165Z,17154.2
2022-09-23T07:01:30.208Z,16317.6
2022-09-23T07:03:30.500Z,17154.2
2022-09-23T07:05:29.851Z,18033.7
2022-09-23T07:09:29.605Z,18958.4
2022-09-23T07:11:29.567Z,19930.4
2022-09-23T07:13:33.662Z,19930.4
2022-09-23T07:15:32.870Z,6310.7
2022-09-23T07:17:32.665Z,4023.9
2022-09-23T07:19:29.611Z,4023.9
2022-09-23T07:21:30.112Z,4023.9
2022-09-23T07:23:36.261Z,4023.9
2022-09-23T07:25:30.342Z,4023.9
2022-09-23T07:27:29.606Z,4230.2
2022-09-23T07:29:35.087Z,4230.2
2022-09-23T07:31:38.193Z,4230.2
2022-09-23T07:33:33.462Z,4230.2
2022-09-23T07:35:29.603Z,4230.2
2022-09-23T07:37:30.204Z,4447.1
2022-09-23T07:39:30.347Z,4675.1
2022-09-23T07:41:30.050Z,4675.1
2022-09-23T07:43:29.747Z,4675.1
2022-09-23T07:45:37.099Z,4914.8
2022-09-23T07:47:33.192Z,4914.8
2022-09-23T07:49:29.648Z,4914.8
2022-09-23T07:51:33.360Z,4914.8
2022-09-23T07:53:30.460Z,5166.8
2022-09-23T07:55:36.854Z,4914.8
2022-09-23T07:57:33.699Z,5166.8
2022-09-23T07:59:33.287Z,5431.7
2022-09-23T08:01:29.774Z,5431.7
2022-09-23T08:03:29.756Z,5431.7
2022-09-23T08:05:30.590Z,5431.7
2022-09-23T08:07:30.545Z,5710.1
2022-09-23T08:09:29.613Z,5710.1
2022-09-23T08:11:39.806Z,5710.1
2022-09-23T08:13:29.654Z,5710.1
2022-09-23T08:15:29.596Z,5710.1
2022-09-23T08:17:32.753Z,6002.9
2022-09-23T08:19:29.515Z,6002.9
2022-09-23T08:21:29.523Z,6002.9
2022-09-23T08:23:29.957Z,6002.9
2022-09-23T08:25:36.541Z,6002.9
2022-09-23T08:27:29.830Z,6002.9
2022-09-23T08:29:29.853Z,6002.9
2022-09-23T08:31:36.772Z,6002.9
2022-09-23T08:33:30.084Z,6002.9
2022-09-23T08:35:34.807Z,6310.7
2022-09-23T08:37:29.652Z,6310.7
2022-09-23T08:39:33.529Z,6310.7
2022-09-23T08:41:29.585Z,6310.7
2022-09-23T08:43:35.195Z,6310.7
2022-09-23T08:45:29.631Z,6310.7
2022-09-23T08:49:29.575Z,6634.2
2022-09-23T08:51:33.615Z,6634.2
2022-09-23T08:53:30.417Z,6974.4
2022-09-23T08:55:40.700Z,6974.4
2022-09-23T08:57:29.587Z,7332
2022-09-23T08:59:33.601Z,7332
2022-09-23T09:01:33.267Z,7332
2022-09-23T09:03:30.240Z,7707.9
2022-09-23T09:05:36.782Z,8103.1
2022-09-23T09:07:36.496Z,8103.1
2022-09-23T09:09:33.633Z,8103.1
2022-09-23T09:13:33.859Z,8103.1
2022-09-23T09:15:30.120Z,8103.1
2022-09-23T09:17:34.354Z,8103.1
2022-09-23T09:19:33.861Z,8518.5
2022-09-23T09:21:29.679Z,8955.3
2022-09-23T09:23:30.017Z,8955.3
2022-09-23T09:25:34.085Z,8955.3
2022-09-23T09:27:30.234Z,8955.3
2022-09-23T09:29:35.664Z,8955.3
2022-09-23T09:31:29.706Z,9414.4
2022-09-23T09:35:29.771Z,9897.1
2022-09-23T09:37:31.610Z,9897.1
2022-09-23T09:39:29.634Z,9897.1
2022-09-23T09:41:36.917Z,9897.1
2022-09-23T09:43:32.968Z,10404.6
2022-09-23T09:45:29.715Z,10404.6
2022-09-23T09:47:36.779Z,10938
2022-09-23T09:49:29.646Z,10938
2022-09-23T09:51:30.177Z,11498.8
2022-09-23T09:53:30.178Z,11498.8
2022-09-23T09:55:35.048Z,11498.8
2022-09-23T09:57:36.865Z,11498.8
2022-09-23T09:59:29.587Z,11498.8
2022-09-23T10:01:29.615Z,12088.4
2022-09-23T10:03:30.591Z,12088.4
2022-09-23T10:05:32.025Z,12088.4
2022-09-23T10:07:33.583Z,12708.2
2022-09-23T10:09:30.007Z,12708.2
2022-09-23T10:11:33.466Z,12708.2
2022-09-23T10:13:29.573Z,12708.2
2022-09-23T10:15:29.618Z,12708.2
2022-09-23T10:17:36.892Z,12708.2
2022-09-23T10:19:30.355Z,13359.7
2022-09-23T10:21:35.871Z,13359.7
2022-09-23T10:23:33.550Z,14044.7
2022-09-23T10:25:36.357Z,14044.7
2022-09-23T10:27:36.816Z,14044.7
2022-09-23T10:29:30.507Z,14044.7
2022-09-23T10:31:30.329Z,14044.7
2022-09-23T10:33:32.090Z,14044.7
2022-09-23T10:35:29.595Z,14044.7
2022-09-23T10:37:36.679Z,14044.7
2022-09-23T10:39:29.646Z,14044.7
2022-09-23T10:41:31.930Z,14764.8
2022-09-23T10:43:30.378Z,14764.8
2022-09-23T10:45:33.373Z,14764.8
2022-09-23T10:47:29.691Z,14764.8
2022-09-23T10:49:33.906Z,14764.8
2022-09-23T10:51:30.316Z,14764.8
2022-09-23T10:53:30.539Z,15521.8
2022-09-23T10:55:29.611Z,15521.8
2022-09-23T10:57:30.294Z,15521.8
2022-09-23T10:59:30.545Z,15521.8
2022-09-23T11:01:30.601Z,15521.8
2022-09-23T11:03:33.475Z,15521.8
2022-09-23T11:05:36.807Z,14764.8
2022-09-23T11:07:32.787Z,14764.8
2022-09-23T11:09:29.520Z,14764.8
2022-09-23T11:11:29.491Z,15521.8
2022-09-23T11:13:32.102Z,15521.8
2022-09-23T11:15:29.673Z,15521.8
2022-09-23T11:17:29.598Z,15521.8
2022-09-23T11:19:30.538Z,15521.8
2022-09-23T11:21:30.511Z,16317.6
2022-09-23T11:23:29.498Z,16317.6
2022-09-23T11:25:29.656Z,16317.6
2022-09-23T11:27:36.756Z,16317.6
2022-09-23T11:29:30.437Z,15521.8
2022-09-23T11:31:29.758Z,15521.8
2022-09-23T11:33:38.379Z,15521.8
2022-09-23T11:35:29.638Z,15521.8
2022-09-23T11:37:29.539Z,15521.8
2022-09-23T11:39:33.193Z,15521.8
2022-09-23T11:41:29.697Z,15521.8
2022-09-23T11:43:29.659Z,15521.8
2022-09-23T11:45:36.857Z,15521.8
2022-09-23T11:47:29.759Z,15521.8
2022-09-23T11:49:33.361Z,15521.8
2022-09-23T11:51:33.661Z,15521.8
2022-09-23T11:53:29.770Z,15521.8
2022-09-23T11:55:30.543Z,14764.8
2022-09-23T11:57:35.738Z,14764.8
2022-09-23T11:59:39.074Z,14764.8
2022-09-23T12:01:34.506Z,14764.8
2022-09-23T12:03:41.107Z,14044.7
2022-09-23T12:05:30.473Z,14044.7
2022-09-23T12:07:29.920Z,14044.7
2022-09-23T12:09:54.353Z,14044.7
2022-09-23T12:11:30.663Z,14044.7
2022-09-23T12:13:33.840Z,14044.7
2022-09-23T12:15:29.644Z,14044.7
2022-09-23T12:17:33.808Z,13359.7
2022-09-23T12:21:49.007Z,14044.7
2022-09-23T12:23:29.617Z,14044.7
2022-09-23T12:25:29.659Z,14044.7
2022-09-23T12:27:29.682Z,13359.7
2022-09-23T12:29:30.402Z,13359.7
2022-09-23T12:31:30.639Z,13359.7
2022-09-23T12:33:36.918Z,12708.2
2022-09-23T12:35:30.044Z,12708.2
2022-09-23T12:37:30.124Z,13359.7
2022-09-23T12:39:33.101Z,13359.7
2022-09-23T12:41:29.601Z,13359.7
2022-09-23T12:45:30.151Z,12088.4
2022-09-23T12:47:29.572Z,11498.8
2022-09-23T12:49:33.742Z,12088.4
2022-09-23T12:51:29.697Z,12708.2
2022-09-23T12:53:34.858Z,12088.4
2022-09-23T12:55:36.868Z,12088.4
2022-09-23T12:57:30.255Z,12708.2
2022-09-23T12:59:29.726Z,12708.2
2022-09-23T13:01:29.722Z,12088.4
2022-09-23T13:03:34.061Z,11498.8
2022-09-23T13:05:36.247Z,11498.8
2022-09-23T13:07:30.315Z,10938
2022-09-23T13:09:32.074Z,10938
2022-09-23T13:11:30.253Z,11498.8
2022-09-23T13:13:29.656Z,11498.8
2022-09-23T13:15:30.063Z,12088.4
2022-09-23T13:17:30.548Z,11498.8
2022-09-23T13:19:30.287Z,11498.8
2022-09-23T13:21:29.729Z,10938
2022-09-23T13:23:29.696Z,10938
2022-09-23T13:27:29.762Z,10404.6
2022-09-23T13:29:33.397Z,9897.1
2022-09-23T13:31:29.679Z,9897.1
2022-09-23T13:33:30.300Z,9414.4
2022-09-23T13:35:33.802Z,8955.3
2022-09-23T13:37:30.267Z,8518.5
2022-09-23T13:39:36.532Z,8103.1
2022-09-23T13:41:29.657Z,8518.5
2022-09-23T13:43:35.544Z,8518.5
2022-09-23T13:45:30.302Z,8518.5
2022-09-23T13:47:29.645Z,8103.1
2022-09-23T13:49:32.900Z,8103.1
2022-09-23T13:51:30.333Z,8103.1
2022-09-23T13:53:29.707Z,8103.1
2022-09-23T13:55:29.700Z,7707.9
2022-09-23T13:57:33.665Z,7707.9
2022-09-23T13:59:30.069Z,7707.9
2022-09-23T14:01:32.872Z,7707.9
2022-09-23T14:03:37.283Z,7332
2022-09-23T14:05:30.402Z,7707.9
2022-09-23T14:07:33.955Z,7332
2022-09-23T14:09:33.679Z,6974.4
2022-09-23T14:11:30.553Z,6634.2
2022-09-23T14:13:31.718Z,6974.4
2022-09-23T14:15:33.748Z,6974.4
2022-09-23T14:17:30.358Z,6974.4
2022-09-23T14:21:29.752Z,6974.4
2022-09-23T14:23:33.762Z,6634.2
2022-09-23T14:25:29.773Z,6310.7
2022-09-23T14:27:30.321Z,6310.7
2022-09-23T14:29:33.859Z,6310.7
2022-09-23T14:31:29.931Z,6310.7
2022-09-23T14:33:36.885Z,6310.7
2022-09-23T14:35:33.708Z,6002.9
2022-09-23T14:37:29.618Z,6002.9
2022-09-23T14:39:30.191Z,5431.7
2022-09-23T14:41:30.002Z,5431.7
2022-09-23T14:43:30.130Z,5166.8
2022-09-23T14:45:33.660Z,5166.8
2022-09-23T14:47:30.569Z,4675.1
2022-09-23T14:49:29.736Z,4914.8
2022-09-23T14:51:29.649Z,4914.8
2022-09-23T14:53:33.404Z,5166.8
2022-09-23T14:55:33.689Z,5431.7
2022-09-23T14:59:33.865Z,5431.7
2022-09-23T15:01:29.689Z,4914.8
2022-09-23T15:03:33.256Z,4675.1
2022-09-23T15:05:29.980Z,4914.8
2022-09-23T15:07:29.789Z,4914.8
2022-09-23T15:09:29.823Z,4914.8
2022-09-23T15:11:30.267Z,4675.1
2022-09-23T15:13:36.886Z,4447.1
2022-09-23T15:15:34.001Z,4230.2
2022-09-23T15:17:29.787Z,4447.1
2022-09-23T15:23:29.761Z,3463.4
2022-09-23T15:25:36.369Z,3294.5
2022-09-23T15:27:29.866Z,2981
2022-09-23T15:29:30.225Z,2835.6
2022-09-23T15:31:33.626Z,2697.3
2022-09-23T15:33:29.857Z,2565.7
2022-09-23T15:35:36.843Z,2440.6
2022-09-23T15:37:32.897Z,2321.6
2022-09-23T15:39:35.925Z,2321.6
2022-09-23T15:41:41.803Z,1998.2
2022-09-23T15:43:29.778Z,1900.7
2022-09-23T15:45:30.365Z,1900.7
2022-09-23T15:47:29.704Z,1808
2022-09-23T15:49:30.044Z,1808
2022-09-23T15:51:34.367Z,1719.9
2022-09-23T15:53:36.933Z,1719.9
2022-09-23T15:57:33.890Z,1636
2022-09-23T15:59:30.603Z,1636
2022-09-23T16:01:29.751Z,1636
2022-09-23T16:03:30.601Z,1556.2
2022-09-23T16:05:30.099Z,1556.2
2022-09-23T16:07:30.741Z,1556.2
2022-09-23T16:11:33.164Z,1556.2
2022-09-23T16:13:30.518Z,1636
2022-09-23T16:15:29.754Z,1636
2022-09-23T16:17:29.756Z,1808
2022-09-23T16:19:30.452Z,1808
2022-09-23T16:21:29.983Z,1636
2022-09-23T16:23:33.989Z,1408.1
2022-09-23T16:27:35.973Z,1212
2022-09-23T16:29:37.037Z,1152.9
2022-09-23T16:31:30.502Z,1096.6
2022-09-23T16:33:30.006Z,1043.1
2022-09-23T16:35:29.740Z,992.3
2022-09-23T16:37:29.916Z,943.9
2022-09-23T16:39:30.440Z,897.8
2022-09-23T16:41:30.552Z,735.1
2022-09-23T16:43:29.828Z,665.1
2022-09-23T16:45:36.224Z,601.8
2022-09-23T16:47:29.795Z,544.6
2022-09-23T16:49:29.775Z,492.7
2022-09-23T16:51:29.610Z,445.9
2022-09-23T16:53:33.107Z,383.8
2022-09-23T16:55:33.830Z,314.2
2022-09-23T16:57:29.676Z,270.4
2022-09-23T16:59:33.786Z,232.8
2022-09-23T17:01:30.266Z,190.6
2022-09-23T17:03:33.919Z,156
2022-09-23T17:05:36.909Z,127.7
2022-09-23T17:07:29.892Z,104.6
2022-09-23T17:09:29.762Z,90
2022-09-23T17:11:32.130Z,73.7
2022-09-23T17:13:29.783Z,60.3
2022-09-23T17:15:30.334Z,51.9
2022-09-23T17:17:29.916Z,40.4
2022-09-23T17:19:40.568Z,31.5
2022-09-23T17:21:29.747Z,24.5
2022-09-23T17:23:31.876Z,18.2
2022-09-23T17:25:30.456Z,13.5
2022-09-23T17:27:30.062Z,9.5
2022-09-23T17:29:33.344Z,6.4
2022-09-23T17:31:29.773Z,4.5
2022-09-23T17:33:33.347Z,3
2022-09-23T17:35:29.942Z,2
2022-09-23T17:37:29.998Z,1.3
2022-09-23T17:39:33.407Z,0.9
2022-09-23T17:41:36.425Z,0.6
2022-09-23T17:43:29.882Z,0.4
2022-09-23T17:45:36.087Z,0.3
2022-09-23T17:47:31.622Z,0.2
2022-09-23T17:49:30.081Z,0.1
2022-09-23T17:51:30.000Z,0.1
2022-09-23T17:53:36.447Z,0
2022-09-23T17:55:36.027Z,0
2022-09-23T17:57:36.009Z,0
2022-09-23T17:59:36.963Z,0
2022-09-23T18:01:33.348Z,1
2022-09-23T18:03:29.876Z,1
2022-09-23T18:05:29.898Z,1
2022-09-23T18:07:29.777Z,1
2022-09-23T18:09:29.801Z,1
2022-09-23T18:11:30.002Z,1
2022-09-23T18:13:33.323Z,1
2022-09-23T18:15:29.762Z,1
2022-09-23T18:17:30.011Z,1
2022-09-23T18:19:29.834Z,1
2022-09-23T18:21:29.778Z,1
2022-09-23T18:23:29.899Z,1
2022-09-23T18:25:39.019Z,1
2022-09-23T18:27:30.106Z,1
2022-09-23T18:29:29.996Z,1
2022-09-23T18:31:30.002Z,1
2022-09-23T18:33:33.278Z,1
2022-09-23T18:35:33.400Z,1
2022-09-23T18:37:29.891Z,1
2022-09-23T18:39:30.121Z,1
2022-09-23T18:41:30.033Z,1
2022-09-23T18:43:37.666Z,1
2022-09-23T18:45:29.798Z,1
2022-09-23T18:47:29.762Z,1
2022-09-23T18:49:36.489Z,1
2022-09-23T18:51:33.354Z,1
2022-09-23T18:53:33.259Z,1
2022-09-23T18:55:30.187Z,1
2022-09-23T18:57:29.769Z,1
2022-09-23T18:59:29.932Z,1
2022-09-23T19:01:30.122Z,1
2022-09-23T19:03:29.789Z,1
2022-09-23T19:05:30.041Z,1
2022-09-23T19:07:30.081Z,1
2022-09-23T19:09:36.586Z,1
2022-09-23T19:11:30.033Z,1
2022-09-23T19:13:29.882Z,1
2022-09-23T19:15:29.844Z,1
2022-09-23T19:17:33.106Z,1
2022-09-23T19:19:30.803Z,1
2022-09-23T19:21:30.009Z,1
2022-09-23T19:23:33.087Z,1
2022-09-23T19:25:30.201Z,1
2022-09-23T19:27:33.168Z,1
2022-09-23T19:29:30.271Z,1
2022-09-23T19:31:33.425Z,1
2022-09-23T19:33:30.072Z,1
2022-09-23T19:35:33.402Z,1
2022-09-23T19:37:29.762Z,1
2022-09-23T19:39:33.191Z,1
2022-09-23T19:41:35.013Z,1
2022-09-23T19:43:29.782Z,1
2022-09-23T19:45:29.809Z,1
2022-09-23T19:47:30.064Z,1
2022-09-23T19:49:36.595Z,1
2022-09-23T19:51:29.763Z,1
2022-09-23T19:53:33.613Z,1
2022-09-23T19:55:29.965Z,1
2022-09-23T19:57:36.412Z,1
2022-09-23T19:59:29.775Z,1
2022-09-23T20:01:36.552Z,1
2022-09-23T20:03:30.036Z,1
2022-09-23T20:05:33.477Z,1
2022-09-23T20:07:33.640Z,1
2022-09-23T20:09:30.042Z,1
2022-09-23T20:11:29.831Z,1
2022-09-23T20:13:29.925Z,1
2022-09-23T20:15:29.837Z,1
2022-09-23T20:17:33.348Z,1
2022-09-23T20:19:29.975Z,1
2022-09-23T20:21:33.358Z,1
2022-09-23T20:23:29.783Z,1
2022-09-23T20:25:29.848Z,1
2022-09-23T20:27:29.896Z,1
2022-09-23T20:29:30.105Z,1
2022-09-23T20:33:29.903Z,1
2022-09-23T20:35:33.390Z,1
2022-09-23T20:37:29.778Z,1
2022-09-23T20:39:30.124Z,1
2022-09-23T20:41:30.040Z,1
2022-09-23T20:43:29.946Z,1
2022-09-23T20:45:29.836Z,1
2022-09-23T20:47:33.345Z,1
2022-09-23T20:49:29.762Z,1
2022-09-23T20:51:30.038Z,1
2022-09-23T20:53:29.892Z,1
2022-09-23T20:55:30.000Z,1
2022-09-23T20:57:29.933Z,1
2022-09-23T20:59:30.008Z,1
2022-09-23T21:01:33.207Z,1
2022-09-23T21:03:30.036Z,1
2022-09-23T21:05:29.768Z,1
2022-09-23T21:07:29.938Z,1
2022-09-23T21:09:29.952Z,1
2022-09-23T21:11:29.821Z,1
2022-09-23T21:13:33.372Z,1
2022-09-23T21:15:33.012Z,1
2022-09-23T21:17:29.717Z,1
2022-09-23T21:19:29.817Z,1
2022-09-23T21:21:30.042Z,1
2022-09-23T21:23:29.922Z,1
2022-09-23T21:25:36.556Z,1
2022-09-23T21:27:29.902Z,1
2022-09-23T21:29:29.933Z,1
2022-09-23T21:31:29.935Z,1
2022-09-23T21:33:29.735Z,1
2022-09-23T21:35:29.723Z,1
2022-09-23T21:39:30.040Z,1
2022-09-23T21:41:33.215Z,1
2022-09-23T21:43:29.886Z,1
2022-09-23T21:45:33.488Z,1
2022-09-23T21:47:33.398Z,1
2022-09-23T21:49:29.823Z,1
2022-09-23T21:51:29.987Z,1
2022-09-23T21:53:36.527Z,1
2022-09-23T21:55:32.996Z,1
2022-09-23T21:57:29.796Z,1
2022-09-23T21:59:29.853Z,1
2022-09-23T22:01:30.225Z,1
2022-09-23T22:03:29.747Z,1
2022-09-23T22:05:30.039Z,1
2022-09-23T22:07:30.075Z,1
2022-09-23T22:09:33.410Z,1
2022-09-23T22:11:29.811Z,1
2022-09-23T22:13:29.959Z,1
2022-09-23T22:15:36.458Z,1
2022-09-23T22:19:29.698Z,1
2022-09-23T22:21:33.301Z,1
2022-09-23T22:23:36.599Z,1
2022-09-23T22:25:29.707Z,1
2022-09-23T22:27:29.737Z,1
2022-09-23T22:29:36.419Z,1
2022-09-23T22:31:29.817Z,1
2022-09-23T22:33:29.807Z,1
2022-09-23T22:35:29.789Z,1
2022-09-23T22:37:30.353Z,1
2022-09-23T22:39:36.525Z,1
2022-09-23T22:41:33.275Z,1
2022-09-23T22:45:29.789Z,1
2022-09-23T22:47:29.819Z,1
2022-09-23T22:51:29.799Z,1
2022-09-23T22:53:29.976Z,1
2022-09-23T22:55:30.209Z,1
2022-09-23T22:57:33.494Z,1
2022-09-23T22:59:29.776Z,1
2022-09-23T23:01:29.896Z,1
2022-09-23T23:03:30.161Z,1
2022-09-23T23:05:29.908Z,1
2022-09-23T23:07:29.804Z,1
2022-09-23T23:09:29.785Z,1
2022-09-23T23:11:29.787Z,1
2022-09-23T23:13:33.199Z,1
2022-09-23T23:15:29.899Z,1
2022-09-23T23:17:33.467Z,1
2022-09-23T23:19:29.788Z,1
2022-09-23T23:21:29.888Z,1
2022-09-23T23:23:33.441Z,1
2022-09-23T23:25:32.968Z,1
2022-09-23T23:27:29.909Z,1
2022-09-23T23:29:29.751Z,1
2022-09-23T23:31:29.733Z,1
2022-09-23T23:33:29.749Z,1
2022-09-23T23:35:30.029Z,1
2022-09-23T23:37:29.797Z,1
2022-09-23T23:39:29.831Z,1
2022-09-23T23:41:29.704Z,1
2022-09-23T23:43:29.717Z,1
2022-09-23T23:45:33.344Z,1
2022-09-23T23:47:33.073Z,1
2022-09-23T23:49:33.057Z,1
2022-09-23T23:51:32.820Z,1
2022-09-23T23:53:29.902Z,1
2022-09-23T23:55:29.817Z,1
2022-09-23T23:57:36.520Z,1
2022-09-23T23:59:36.481Z,1
